logo dgac
Martes 21 de Septiembre del 2021
Buscar por aerodromo o helipuerto
Ingrese nombre de aeródromo, localidad o designador OACI:

Aeródromo: Mocopulli (PUB) (SCPQ)

Ubicación: Dalcahue, X Región, Chile (42º 20' 25'' S, 73º 42' 57'' W) Ver ubicación en el mapa

Pistas

Orientación Dimensión Pendiente Superficie Resistencia APCH THR RWY PAPI
17/35 2000 x 45 m 0,70 ASPH 109 F/D/X/T Sí (3º)
Horas de operación HJ
Elevación 161 m / 528 ft
Otra Información Adm : D.G.A.C
Uso : PUB
Ubicado 6.5 km NW Dalcahue
TEL (065) 2772770 anexo ARO/MET 5206
CEL Jefatura AD 991581864
email : aro.mocopulli@dgac.gob.cl

Otra información ver AIP-Chile Volumen I ENR 4.1-5 / AD 3.9-4.1-D

CCCM/FCCV Descargar
andera de Chile
Mapa de Mocopulli (PUB) (SCPQ)

Último METAR

METAR SCPQ 211000Z AUTO 20006KT 4800 NCD 01/01 Q1021

Último TAF

TAF SCPQ 211023Z 2112/2200 18007KT CAVOK TN03/2112Z TX16/2119Z

Últimas fotos cámaras

Imagen aerodromo Mocopulli (PUB) (SCPQ) Norte tomada el 21-09-2021 11:46:31 Imagen aerodromo Mocopulli (PUB) (SCPQ) Sur tomada el 21-09-2021 11:46:35

Último NOTAM

C4145/21 NOTAMN Q)SCTZ/QFMLT/IV/BO/A/000/999/4220S07343W005 A)SCPQ B)2109161755 C)2110162359 E)EMA WIND 17 U/S